sensor_id;sensor_type;location;lat;lon;timestamp;P1;durP1;ratioP1;P2;durP2;ratioP2
20861;SDS011;10591;52.532;13.348;2023-06-26T00:00:51;16.23;;;14.63;;
20861;SDS011;10591;52.532;13.348;2023-06-26T00:03:22;15.68;;;14.05;;
20861;SDS011;10591;52.532;13.348;2023-06-26T00:05:53;17.00;;;15.30;;
20861;SDS011;10591;52.532;13.348;2023-06-26T00:08:24;19.00;;;17.20;;
20861;SDS011;10591;52.532;13.348;2023-06-26T00:10:55;15.05;;;13.55;;
20861;SDS011;10591;52.532;13.348;2023-06-26T00:13:25;13.75;;;12.45;;
20861;SDS011;10591;52.532;13.348;2023-06-26T00:15:57;14.13;;;12.63;;
20861;SDS011;10591;52.532;13.348;2023-06-26T00:18:29;13.05;;;11.85;;
20861;SDS011;10591;52.532;13.348;2023-06-26T00:21:00;14.23;;;12.82;;
20861;SDS011;10591;52.532;13.348;2023-06-26T00:23:30;14.73;;;13.25;;
20861;SDS011;10591;52.532;13.348;2023-06-26T00:26:04;14.45;;;13.15;;
20861;SDS011;10591;52.532;13.348;2023-06-26T00:28:34;13.85;;;12.45;;
20861;SDS011;10591;52.532;13.348;2023-06-26T00:31:05;14.53;;;13.20;;
20861;SDS011;10591;52.532;13.348;2023-06-26T00:33:36;14.63;;;13.28;;
20861;SDS011;10591;52.532;13.348;2023-06-26T00:36:06;14.38;;;12.88;;
20861;SDS011;10591;52.532;13.348;2023-06-26T00:38:37;15.05;;;13.50;;
20861;SDS011;10591;52.532;13.348;2023-06-26T00:41:07;14.83;;;13.05;;
20861;SDS011;10591;52.532;13.348;2023-06-26T00:43:40;14.15;;;12.75;;
20861;SDS011;10591;52.532;13.348;2023-06-26T00:46:12;14.87;;;13.48;;
20861;SDS011;10591;52.532;13.348;2023-06-26T00:48:44;15.68;;;14.20;;
20861;SDS011;10591;52.532;13.348;2023-06-26T00:51:16;17.50;;;15.70;;
20861;SDS011;10591;52.532;13.348;2023-06-26T00:53:48;15.15;;;13.65;;
20861;SDS011;10591;52.532;13.348;2023-06-26T00:56:19;15.53;;;14.05;;
20861;SDS011;10591;52.532;13.348;2023-06-26T00:58:50;14.87;;;13.50;;
20861;SDS011;10591;52.532;13.348;2023-06-26T01:01:20;14.23;;;12.80;;
20861;SDS011;10591;52.532;13.348;2023-06-26T01:03:53;14.30;;;12.93;;
20861;SDS011;10591;52.532;13.348;2023-06-26T01:06:27;15.25;;;13.40;;
20861;SDS011;10591;52.532;13.348;2023-06-26T01:09:00;13.75;;;12.45;;
20861;SDS011;10591;52.532;13.348;2023-06-26T01:11:31;14.10;;;12.80;;
20861;SDS011;10591;52.532;13.348;2023-06-26T01:14:02;14.65;;;13.35;;
20861;SDS011;10591;52.532;13.348;2023-06-26T01:16:32;14.25;;;12.75;;
20861;SDS011;10591;52.532;13.348;2023-06-26T01:19:06;14.35;;;13.05;;
20861;SDS011;10591;52.532;13.348;2023-06-26T01:21:42;14.95;;;13.05;;
20861;SDS011;10591;52.532;13.348;2023-06-26T01:24:17;17.65;;;15.85;;
20861;SDS011;10591;52.532;13.348;2023-06-26T01:26:49;14.33;;;12.93;;
20861;SDS011;10591;52.532;13.348;2023-06-26T01:29:21;15.85;;;14.28;;
20861;SDS011;10591;52.532;13.348;2023-06-26T01:31:54;14.78;;;13.28;;
20861;SDS011;10591;52.532;13.348;2023-06-26T01:34:25;14.87;;;13.38;;
20861;SDS011;10591;52.532;13.348;2023-06-26T01:36:56;14.98;;;13.38;;
20861;SDS011;10591;52.532;13.348;2023-06-26T01:39:28;14.70;;;13.20;;
20861;SDS011;10591;52.532;13.348;2023-06-26T01:41:58;14.87;;;13.32;;
20861;SDS011;10591;52.532;13.348;2023-06-26T01:44:30;15.10;;;13.60;;
20861;SDS011;10591;52.532;13.348;2023-06-26T01:47:04;14.23;;;12.85;;
20861;SDS011;10591;52.532;13.348;2023-06-26T01:55:17;15.00;;;13.62;;
20861;SDS011;10591;52.532;13.348;2023-06-26T01:57:49;14.25;;;12.95;;
20861;SDS011;10591;52.532;13.348;2023-06-26T02:00:22;14.58;;;13.18;;
20861;SDS011;10591;52.532;13.348;2023-06-26T02:02:54;15.55;;;13.90;;
20861;SDS011;10591;52.532;13.348;2023-06-26T02:05:25;15.18;;;13.78;;
20861;SDS011;10591;52.532;13.348;2023-06-26T02:07:55;15.32;;;13.85;;
20861;SDS011;10591;52.532;13.348;2023-06-26T02:10:26;15.58;;;14.07;;
20861;SDS011;10591;52.532;13.348;2023-06-26T02:12:57;15.80;;;13.93;;
20861;SDS011;10591;52.532;13.348;2023-06-26T02:15:28;15.83;;;13.20;;
20861;SDS011;10591;52.532;13.348;2023-06-26T02:17:59;15.83;;;14.23;;
20861;SDS011;10591;52.532;13.348;2023-06-26T02:20:29;15.98;;;14.40;;
20861;SDS011;10591;52.532;13.348;2023-06-26T02:23:01;15.13;;;13.75;;
20861;SDS011;10591;52.532;13.348;2023-06-26T02:25:32;16.57;;;15.08;;
20861;SDS011;10591;52.532;13.348;2023-06-26T02:28:03;16.73;;;15.20;;
20861;SDS011;10591;52.532;13.348;2023-06-26T02:30:33;14.65;;;13.35;;
20861;SDS011;10591;52.532;13.348;2023-06-26T02:33:05;14.95;;;13.45;;
20861;SDS011;10591;52.532;13.348;2023-06-26T02:35:36;15.35;;;13.95;;
20861;SDS011;10591;52.532;13.348;2023-06-26T02:38:06;15.23;;;13.78;;
20861;SDS011;10591;52.532;13.348;2023-06-26T02:40:39;15.40;;;13.98;;
20861;SDS011;10591;52.532;13.348;2023-06-26T02:43:10;16.20;;;14.70;;
20861;SDS011;10591;52.532;13.348;2023-06-26T02:45:41;16.37;;;14.73;;
20861;SDS011;10591;52.532;13.348;2023-06-26T02:48:11;16.15;;;14.65;;
20861;SDS011;10591;52.532;13.348;2023-06-26T02:50:42;16.90;;;15.30;;
20861;SDS011;10591;52.532;13.348;2023-06-26T02:53:15;16.45;;;14.60;;
20861;SDS011;10591;52.532;13.348;2023-06-26T02:55:45;15.15;;;13.65;;
20861;SDS011;10591;52.532;13.348;2023-06-26T02:58:16;15.63;;;14.15;;
20861;SDS011;10591;52.532;13.348;2023-06-26T03:00:47;16.05;;;14.58;;
20861;SDS011;10591;52.532;13.348;2023-06-26T03:03:22;16.25;;;14.78;;
20861;SDS011;10591;52.532;13.348;2023-06-26T03:05:53;16.20;;;14.63;;
20861;SDS011;10591;52.532;13.348;2023-06-26T03:08:24;17.02;;;15.43;;
20861;SDS011;10591;52.532;13.348;2023-06-26T03:10:55;16.67;;;15.18;;
20861;SDS011;10591;52.532;13.348;2023-06-26T03:13:25;16.80;;;15.20;;
20861;SDS011;10591;52.532;13.348;2023-06-26T03:15:56;15.78;;;14.23;;
20861;SDS011;10591;52.532;13.348;2023-06-26T03:18:27;16.65;;;15.10;;
20861;SDS011;10591;52.532;13.348;2023-06-26T03:20:58;16.67;;;15.18;;
20861;SDS011;10591;52.532;13.348;2023-06-26T03:23:28;16.67;;;15.05;;
20861;SDS011;10591;52.532;13.348;2023-06-26T03:25:59;18.55;;;16.85;;
20861;SDS011;10591;52.532;13.348;2023-06-26T03:28:30;16.87;;;15.30;;
20861;SDS011;10591;52.532;13.348;2023-06-26T03:31:04;16.55;;;14.95;;
20861;SDS011;10591;52.532;13.348;2023-06-26T03:33:34;16.97;;;15.48;;
20861;SDS011;10591;52.532;13.348;2023-06-26T03:36:05;16.32;;;14.83;;
20861;SDS011;10591;52.532;13.348;2023-06-26T03:38:36;16.85;;;15.25;;
20861;SDS011;10591;52.532;13.348;2023-06-26T03:41:07;17.73;;;15.95;;
20861;SDS011;10591;52.532;13.348;2023-06-26T03:43:38;17.90;;;16.00;;
20861;SDS011;10591;52.532;13.348;2023-06-26T03:46:09;17.05;;;15.45;;
20861;SDS011;10591;52.532;13.348;2023-06-26T03:48:39;16.80;;;15.05;;
20861;SDS011;10591;52.532;13.348;2023-06-26T03:51:10;17.02;;;15.45;;
20861;SDS011;10591;52.532;13.348;2023-06-26T03:53:41;16.52;;;14.95;;
20861;SDS011;10591;52.532;13.348;2023-06-26T03:56:12;17.65;;;16.00;;
20861;SDS011;10591;52.532;13.348;2023-06-26T03:58:42;18.05;;;15.48;;
20861;SDS011;10591;52.532;13.348;2023-06-26T04:01:13;18.05;;;16.02;;
20861;SDS011;10591;52.532;13.348;2023-06-26T04:03:44;18.25;;;16.37;;
20861;SDS011;10591;52.532;13.348;2023-06-26T04:06:14;16.02;;;14.63;;
20861;SDS011;10591;52.532;13.348;2023-06-26T04:08:46;16.85;;;15.13;;
20861;SDS011;10591;52.532;13.348;2023-06-26T04:11:17;16.32;;;14.83;;
20861;SDS011;10591;52.532;13.348;2023-06-26T04:13:49;15.60;;;14.20;;
20861;SDS011;10591;52.532;13.348;2023-06-26T04:16:21;16.52;;;14.93;;
20861;SDS011;10591;52.532;13.348;2023-06-26T04:18:53;15.03;;;13.75;;
20861;SDS011;10591;52.532;13.348;2023-06-26T04:21:25;16.00;;;14.60;;
20861;SDS011;10591;52.532;13.348;2023-06-26T04:23:55;15.53;;;14.03;;
20861;SDS011;10591;52.532;13.348;2023-06-26T04:26:26;15.28;;;13.78;;
20861;SDS011;10591;52.532;13.348;2023-06-26T04:28:57;15.85;;;14.45;;
20861;SDS011;10591;52.532;13.348;2023-06-26T04:31:28;16.23;;;14.73;;
20861;SDS011;10591;52.532;13.348;2023-06-26T04:33:59;15.80;;;14.33;;
20861;SDS011;10591;52.532;13.348;2023-06-26T04:36:29;16.32;;;14.93;;
20861;SDS011;10591;52.532;13.348;2023-06-26T04:39:02;17.82;;;15.72;;
20861;SDS011;10591;52.532;13.348;2023-06-26T04:41:33;16.17;;;14.87;;
20861;SDS011;10591;52.532;13.348;2023-06-26T04:44:03;15.78;;;14.40;;
20861;SDS011;10591;52.532;13.348;2023-06-26T04:46:36;15.45;;;14.05;;
20861;SDS011;10591;52.532;13.348;2023-06-26T04:49:10;17.15;;;15.55;;
20861;SDS011;10591;52.532;13.348;2023-06-26T04:51:41;16.15;;;14.75;;
20861;SDS011;10591;52.532;13.348;2023-06-26T04:54:11;17.15;;;15.60;;
20861;SDS011;10591;52.532;13.348;2023-06-26T04:56:42;16.57;;;14.98;;
20861;SDS011;10591;52.532;13.348;2023-06-26T04:59:16;16.62;;;15.03;;
20861;SDS011;10591;52.532;13.348;2023-06-26T05:01:49;16.62;;;15.03;;
20861;SDS011;10591;52.532;13.348;2023-06-26T05:04:22;15.50;;;14.10;;
20861;SDS011;10591;52.532;13.348;2023-06-26T05:06:54;15.38;;;14.00;;
20861;SDS011;10591;52.532;13.348;2023-06-26T05:09:25;15.83;;;14.28;;
20861;SDS011;10591;52.532;13.348;2023-06-26T05:11:55;15.85;;;14.35;;
20861;SDS011;10591;52.532;13.348;2023-06-26T05:14:30;15.43;;;14.03;;
20861;SDS011;10591;52.532;13.348;2023-06-26T05:17:02;20.65;;;14.18;;
20861;SDS011;10591;52.532;13.348;2023-06-26T05:19:33;16.50;;;14.80;;
20861;SDS011;10591;52.532;13.348;2023-06-26T05:22:04;15.70;;;14.20;;
20861;SDS011;10591;52.532;13.348;2023-06-26T05:24:38;15.10;;;13.72;;
20861;SDS011;10591;52.532;13.348;2023-06-26T05:27:10;16.07;;;14.38;;
20861;SDS011;10591;52.532;13.348;2023-06-26T05:29:43;15.43;;;14.13;;
20861;SDS011;10591;52.532;13.348;2023-06-26T05:32:15;14.60;;;13.30;;
20861;SDS011;10591;52.532;13.348;2023-06-26T05:34:52;15.03;;;13.62;;
20861;SDS011;10591;52.532;13.348;2023-06-26T05:37:26;15.68;;;14.28;;
20861;SDS011;10591;52.532;13.348;2023-06-26T05:39:59;16.10;;;14.50;;
20861;SDS011;10591;52.532;13.348;2023-06-26T05:42:32;16.70;;;15.08;;
20861;SDS011;10591;52.532;13.348;2023-06-26T05:45:04;14.98;;;13.48;;
20861;SDS011;10591;52.532;13.348;2023-06-26T05:47:35;14.05;;;12.75;;
20861;SDS011;10591;52.532;13.348;2023-06-26T05:50:06;14.15;;;12.82;;
20861;SDS011;10591;52.532;13.348;2023-06-26T05:52:38;14.23;;;12.88;;
20861;SDS011;10591;52.532;13.348;2023-06-26T05:55:11;14.28;;;12.95;;
20861;SDS011;10591;52.532;13.348;2023-06-26T05:57:47;13.30;;;12.13;;
20861;SDS011;10591;52.532;13.348;2023-06-26T06:00:20;13.38;;;12.05;;
20861;SDS011;10591;52.532;13.348;2023-06-26T06:02:51;12.13;;;11.10;;
20861;SDS011;10591;52.532;13.348;2023-06-26T06:05:23;13.00;;;11.90;;
20861;SDS011;10591;52.532;13.348;2023-06-26T06:07:55;13.00;;;11.73;;
20861;SDS011;10591;52.532;13.348;2023-06-26T06:10:26;13.03;;;11.88;;
20861;SDS011;10591;52.532;13.348;2023-06-26T06:12:56;11.65;;;10.65;;
20861;SDS011;10591;52.532;13.348;2023-06-26T06:15:29;11.70;;;10.80;;
20861;SDS011;10591;52.532;13.348;2023-06-26T06:18:03;11.45;;;10.43;;
20861;SDS011;10591;52.532;13.348;2023-06-26T06:20:34;11.38;;;10.48;;
20861;SDS011;10591;52.532;13.348;2023-06-26T06:23:06;10.43;;;9.50;;
20861;SDS011;10591;52.532;13.348;2023-06-26T06:25:39;11.53;;;9.60;;
20861;SDS011;10591;52.532;13.348;2023-06-26T06:28:10;10.43;;;9.63;;
20861;SDS011;10591;52.532;13.348;2023-06-26T06:30:46;10.95;;;9.93;;
20861;SDS011;10591;52.532;13.348;2023-06-26T06:33:16;10.75;;;9.85;;
20861;SDS011;10591;52.532;13.348;2023-06-26T06:35:52;10.78;;;8.98;;
20861;SDS011;10591;52.532;13.348;2023-06-26T06:38:23;10.10;;;9.05;;
20861;SDS011;10591;52.532;13.348;2023-06-26T06:40:54;10.40;;;9.35;;
20861;SDS011;10591;52.532;13.348;2023-06-26T06:43:26;9.40;;;8.60;;
20861;SDS011;10591;52.532;13.348;2023-06-26T06:45:57;9.18;;;8.38;;
20861;SDS011;10591;52.532;13.348;2023-06-26T06:48:27;8.83;;;7.92;;
20861;SDS011;10591;52.532;13.348;2023-06-26T06:50:58;8.93;;;8.23;;
20861;SDS011;10591;52.532;13.348;2023-06-26T06:53:29;9.18;;;7.95;;
20861;SDS011;10591;52.532;13.348;2023-06-26T06:56:03;9.28;;;8.35;;
20861;SDS011;10591;52.532;13.348;2023-06-26T06:58:34;8.60;;;7.80;;
20861;SDS011;10591;52.532;13.348;2023-06-26T07:01:05;7.75;;;7.15;;
20861;SDS011;10591;52.532;13.348;2023-06-26T07:03:36;8.45;;;7.75;;
20861;SDS011;10591;52.532;13.348;2023-06-26T07:06:07;8.75;;;7.97;;
20861;SDS011;10591;52.532;13.348;2023-06-26T07:08:38;8.20;;;7.40;;
20861;SDS011;10591;52.532;13.348;2023-06-26T07:11:09;8.53;;;7.85;;
20861;SDS011;10591;52.532;13.348;2023-06-26T07:13:39;8.40;;;7.12;;
20861;SDS011;10591;52.532;13.348;2023-06-26T07:16:10;8.50;;;7.78;;
20861;SDS011;10591;52.532;13.348;2023-06-26T07:18:41;8.75;;;7.95;;
20861;SDS011;10591;52.532;13.348;2023-06-26T07:21:12;8.50;;;7.80;;
20861;SDS011;10591;52.532;13.348;2023-06-26T07:23:43;8.48;;;7.70;;
20861;SDS011;10591;52.532;13.348;2023-06-26T07:26:14;10.13;;;8.00;;
20861;SDS011;10591;52.532;13.348;2023-06-26T07:28:44;7.97;;;7.28;;
20861;SDS011;10591;52.532;13.348;2023-06-26T07:31:16;8.15;;;7.45;;
20861;SDS011;10591;52.532;13.348;2023-06-26T07:33:48;8.43;;;7.62;;
20861;SDS011;10591;52.532;13.348;2023-06-26T07:36:23;8.53;;;7.62;;
20861;SDS011;10591;52.532;13.348;2023-06-26T07:38:56;9.10;;;8.30;;
20861;SDS011;10591;52.532;13.348;2023-06-26T07:41:32;8.95;;;7.97;;
20861;SDS011;10591;52.532;13.348;2023-06-26T07:44:02;10.85;;;8.00;;
20861;SDS011;10591;52.532;13.348;2023-06-26T07:46:35;7.95;;;7.15;;
20861;SDS011;10591;52.532;13.348;2023-06-26T07:49:09;8.30;;;7.50;;
20861;SDS011;10591;52.532;13.348;2023-06-26T07:51:42;7.80;;;7.10;;
20861;SDS011;10591;52.532;13.348;2023-06-26T07:54:15;7.65;;;6.95;;
20861;SDS011;10591;52.532;13.348;2023-06-26T07:56:58;8.15;;;7.45;;
20861;SDS011;10591;52.532;13.348;2023-06-26T07:59:33;9.10;;;7.53;;
20861;SDS011;10591;52.532;13.348;2023-06-26T08:02:04;7.95;;;7.15;;
20861;SDS011;10591;52.532;13.348;2023-06-26T08:04:38;7.55;;;6.92;;
20861;SDS011;10591;52.532;13.348;2023-06-26T08:07:11;7.55;;;6.85;;
20861;SDS011;10591;52.532;13.348;2023-06-26T08:09:45;9.45;;;7.28;;
20861;SDS011;10591;52.532;13.348;2023-06-26T08:12:16;7.75;;;7.12;;
20861;SDS011;10591;52.532;13.348;2023-06-26T08:14:49;7.33;;;6.72;;
20861;SDS011;10591;52.532;13.348;2023-06-26T08:17:23;8.10;;;7.00;;
20861;SDS011;10591;52.532;13.348;2023-06-26T08:19:58;7.60;;;6.90;;
20861;SDS011;10591;52.532;13.348;2023-06-26T08:22:29;8.48;;;6.78;;
20861;SDS011;10591;52.532;13.348;2023-06-26T08:25:02;7.72;;;6.65;;
20861;SDS011;10591;52.532;13.348;2023-06-26T08:27:34;8.40;;;6.87;;
20861;SDS011;10591;52.532;13.348;2023-06-26T08:30:08;8.30;;;7.33;;
20861;SDS011;10591;52.532;13.348;2023-06-26T08:32:39;8.48;;;6.50;;
20861;SDS011;10591;52.532;13.348;2023-06-26T08:35:12;7.30;;;6.60;;
20861;SDS011;10591;52.532;13.348;2023-06-26T08:37:50;7.75;;;6.87;;
20861;SDS011;10591;52.532;13.348;2023-06-26T08:40:21;7.47;;;6.62;;
20861;SDS011;10591;52.532;13.348;2023-06-26T08:42:55;7.65;;;6.95;;
20861;SDS011;10591;52.532;13.348;2023-06-26T08:45:30;6.97;;;6.33;;
20861;SDS011;10591;52.532;13.348;2023-06-26T08:48:03;8.45;;;7.42;;
20861;SDS011;10591;52.532;13.348;2023-06-26T08:50:39;7.17;;;6.47;;
20861;SDS011;10591;52.532;13.348;2023-06-26T08:53:17;6.85;;;6.25;;
20861;SDS011;10591;52.532;13.348;2023-06-26T08:56:06;5.83;;;5.40;;
20861;SDS011;10591;52.532;13.348;2023-06-26T08:58:40;6.10;;;5.33;;
20861;SDS011;10591;52.532;13.348;2023-06-26T09:01:12;6.00;;;5.45;;
20861;SDS011;10591;52.532;13.348;2023-06-26T09:03:48;6.67;;;6.08;;
20861;SDS011;10591;52.532;13.348;2023-06-26T09:06:22;6.22;;;5.60;;
20861;SDS011;10591;52.532;13.348;2023-06-26T09:08:56;6.50;;;5.65;;
20861;SDS011;10591;52.532;13.348;2023-06-26T09:11:27;7.92;;;6.40;;
20861;SDS011;10591;52.532;13.348;2023-06-26T09:13:59;6.37;;;5.87;;
20861;SDS011;10591;52.532;13.348;2023-06-26T09:16:33;6.33;;;5.83;;
20861;SDS011;10591;52.532;13.348;2023-06-26T09:19:13;6.03;;;5.53;;
20861;SDS011;10591;52.532;13.348;2023-06-26T09:21:47;7.45;;;5.50;;
20861;SDS011;10591;52.532;13.348;2023-06-26T09:24:20;6.03;;;5.42;;
20861;SDS011;10591;52.532;13.348;2023-06-26T09:26:52;5.55;;;5.05;;
20861;SDS011;10591;52.532;13.348;2023-06-26T09:29:25;6.00;;;5.50;;
20861;SDS011;10591;52.532;13.348;2023-06-26T09:32:00;7.45;;;5.65;;
20861;SDS011;10591;52.532;13.348;2023-06-26T09:34:34;5.78;;;5.35;;
20861;SDS011;10591;52.532;13.348;2023-06-26T09:37:05;5.58;;;5.17;;
20861;SDS011;10591;52.532;13.348;2023-06-26T09:39:38;5.72;;;5.20;;
20861;SDS011;10591;52.532;13.348;2023-06-26T09:42:13;5.70;;;5.20;;
20861;SDS011;10591;52.532;13.348;2023-06-26T09:44:44;11.97;;;6.83;;
20861;SDS011;10591;52.532;13.348;2023-06-26T09:47:21;6.17;;;5.35;;
20861;SDS011;10591;52.532;13.348;2023-06-26T09:49:53;5.60;;;5.10;;
20861;SDS011;10591;52.532;13.348;2023-06-26T09:52:31;5.47;;;4.50;;
20861;SDS011;10591;52.532;13.348;2023-06-26T09:55:10;5.15;;;4.65;;
20861;SDS011;10591;52.532;13.348;2023-06-26T09:57:43;4.78;;;4.37;;
20861;SDS011;10591;52.532;13.348;2023-06-26T10:00:18;5.25;;;4.80;;
20861;SDS011;10591;52.532;13.348;2023-06-26T10:02:50;4.83;;;4.42;;
20861;SDS011;10591;52.532;13.348;2023-06-26T10:05:20;5.47;;;5.00;;
20861;SDS011;10591;52.532;13.348;2023-06-26T10:07:52;5.22;;;4.83;;
20861;SDS011;10591;52.532;13.348;2023-06-26T10:10:28;6.10;;;5.50;;
20861;SDS011;10591;52.532;13.348;2023-06-26T10:13:01;5.50;;;5.00;;
20861;SDS011;10591;52.532;13.348;2023-06-26T10:15:37;5.78;;;5.28;;
20861;SDS011;10591;52.532;13.348;2023-06-26T10:18:10;9.48;;;5.60;;
20861;SDS011;10591;52.532;13.348;2023-06-26T10:20:47;5.80;;;5.30;;
20861;SDS011;10591;52.532;13.348;2023-06-26T10:23:19;5.75;;;5.25;;
20861;SDS011;10591;52.532;13.348;2023-06-26T10:25:57;5.90;;;5.40;;
20861;SDS011;10591;52.532;13.348;2023-06-26T10:28:31;6.28;;;5.65;;
20861;SDS011;10591;52.532;13.348;2023-06-26T10:31:05;7.08;;;5.75;;
20861;SDS011;10591;52.532;13.348;2023-06-26T10:33:38;12.20;;;6.42;;
20861;SDS011;10591;52.532;13.348;2023-06-26T10:36:17;6.72;;;5.17;;
20861;SDS011;10591;52.532;13.348;2023-06-26T10:38:52;8.00;;;5.87;;
20861;SDS011;10591;52.532;13.348;2023-06-26T10:41:27;5.87;;;5.30;;
20861;SDS011;10591;52.532;13.348;2023-06-26T10:46:56;6.53;;;5.42;;
20861;SDS011;10591;52.532;13.348;2023-06-26T10:49:25;6.28;;;5.70;;
20861;SDS011;10591;52.532;13.348;2023-06-26T10:52:03;5.85;;;5.40;;
20861;SDS011;10591;52.532;13.348;2023-06-26T10:54:34;6.08;;;5.58;;
20861;SDS011;10591;52.532;13.348;2023-06-26T10:57:09;8.55;;;5.30;;
20861;SDS011;10591;52.532;13.348;2023-06-26T10:59:48;5.72;;;5.25;;
20861;SDS011;10591;52.532;13.348;2023-06-26T11:02:46;6.15;;;5.55;;
20861;SDS011;10591;52.532;13.348;2023-06-26T11:05:12;6.47;;;5.87;;
20861;SDS011;10591;52.532;13.348;2023-06-26T11:08:02;6.33;;;5.42;;
20861;SDS011;10591;52.532;13.348;2023-06-26T11:11:03;6.42;;;5.92;;
20861;SDS011;10591;52.532;13.348;2023-06-26T11:13:26;5.83;;;5.33;;
20861;SDS011;10591;52.532;13.348;2023-06-26T11:16:03;6.80;;;6.12;;
20861;SDS011;10591;52.532;13.348;2023-06-26T11:18:40;6.25;;;5.78;;
20861;SDS011;10591;52.532;13.348;2023-06-26T11:21:20;6.30;;;5.70;;
20861;SDS011;10591;52.532;13.348;2023-06-26T11:23:57;6.30;;;5.70;;
20861;SDS011;10591;52.532;13.348;2023-06-26T11:26:37;6.45;;;5.95;;
20861;SDS011;10591;52.532;13.348;2023-06-26T11:29:15;5.92;;;5.53;;
20861;SDS011;10591;52.532;13.348;2023-06-26T11:31:57;6.62;;;5.97;;
20861;SDS011;10591;52.532;13.348;2023-06-26T11:34:28;5.30;;;4.90;;
20861;SDS011;10591;52.532;13.348;2023-06-26T11:37:02;6.58;;;5.15;;
20861;SDS011;10591;52.532;13.348;2023-06-26T11:39:35;6.50;;;5.85;;
20861;SDS011;10591;52.532;13.348;2023-06-26T11:42:07;5.35;;;4.95;;
20861;SDS011;10591;52.532;13.348;2023-06-26T11:44:40;6.30;;;5.75;;
20861;SDS011;10591;52.532;13.348;2023-06-26T11:47:20;7.08;;;5.53;;
20861;SDS011;10591;52.532;13.348;2023-06-26T11:49:52;5.92;;;5.42;;
20861;SDS011;10591;52.532;13.348;2023-06-26T11:52:26;6.20;;;5.60;;
20861;SDS011;10591;52.532;13.348;2023-06-26T11:54:59;5.95;;;5.47;;
20861;SDS011;10591;52.532;13.348;2023-06-26T11:57:33;6.00;;;5.45;;
20861;SDS011;10591;52.532;13.348;2023-06-26T12:00:14;6.20;;;5.70;;
20861;SDS011;10591;52.532;13.348;2023-06-26T12:02:47;6.75;;;6.15;;
20861;SDS011;10591;52.532;13.348;2023-06-26T12:05:18;6.25;;;5.62;;
20861;SDS011;10591;52.532;13.348;2023-06-26T12:07:53;6.70;;;6.00;;
20861;SDS011;10591;52.532;13.348;2023-06-26T12:10:26;6.17;;;5.67;;
20861;SDS011;10591;52.532;13.348;2023-06-26T12:12:59;6.28;;;5.78;;
20861;SDS011;10591;52.532;13.348;2023-06-26T12:15:32;5.87;;;5.37;;
20861;SDS011;10591;52.532;13.348;2023-06-26T12:18:08;6.65;;;6.15;;
20861;SDS011;10591;52.532;13.348;2023-06-26T12:20:40;6.85;;;6.25;;
20861;SDS011;10591;52.532;13.348;2023-06-26T12:23:14;7.15;;;6.45;;
20861;SDS011;10591;52.532;13.348;2023-06-26T12:25:46;6.42;;;5.85;;
20861;SDS011;10591;52.532;13.348;2023-06-26T12:28:19;7.17;;;6.08;;
20861;SDS011;10591;52.532;13.348;2023-06-26T12:33:43;7.12;;;6.40;;
20861;SDS011;10591;52.532;13.348;2023-06-26T12:36:14;6.08;;;5.58;;
20861;SDS011;10591;52.532;13.348;2023-06-26T12:38:48;7.50;;;6.80;;
20861;SDS011;10591;52.532;13.348;2023-06-26T12:41:20;6.85;;;6.22;;
20861;SDS011;10591;52.532;13.348;2023-06-26T12:43:55;7.33;;;6.65;;
20861;SDS011;10591;52.532;13.348;2023-06-26T12:46:34;7.25;;;6.53;;
20861;SDS011;10591;52.532;13.348;2023-06-26T12:49:07;6.80;;;6.25;;
20861;SDS011;10591;52.532;13.348;2023-06-26T12:51:42;7.33;;;6.45;;
20861;SDS011;10591;52.532;13.348;2023-06-26T12:54:15;6.87;;;6.28;;
20861;SDS011;10591;52.532;13.348;2023-06-26T12:56:46;7.00;;;6.08;;
20861;SDS011;10591;52.532;13.348;2023-06-26T12:59:18;6.75;;;6.12;;
20861;SDS011;10591;52.532;13.348;2023-06-26T13:01:52;10.28;;;7.33;;
20861;SDS011;10591;52.532;13.348;2023-06-26T13:04:23;10.18;;;7.50;;
20861;SDS011;10591;52.532;13.348;2023-06-26T13:06:56;7.87;;;7.17;;
20861;SDS011;10591;52.532;13.348;2023-06-26T13:09:31;7.78;;;7.00;;
20861;SDS011;10591;52.532;13.348;2023-06-26T13:12:03;8.30;;;7.33;;
20861;SDS011;10591;52.532;13.348;2023-06-26T13:14:37;7.42;;;6.72;;
20861;SDS011;10591;52.532;13.348;2023-06-26T13:17:08;7.85;;;6.90;;
20861;SDS011;10591;52.532;13.348;2023-06-26T13:19:42;7.47;;;6.78;;
20861;SDS011;10591;52.532;13.348;2023-06-26T13:22:13;7.65;;;6.95;;
20861;SDS011;10591;52.532;13.348;2023-06-26T13:24:43;7.50;;;6.80;;
20861;SDS011;10591;52.532;13.348;2023-06-26T13:27:16;7.80;;;7.10;;
20861;SDS011;10591;52.532;13.348;2023-06-26T13:29:48;8.23;;;7.42;;
20861;SDS011;10591;52.532;13.348;2023-06-26T13:32:20;8.80;;;7.85;;
20861;SDS011;10591;52.532;13.348;2023-06-26T13:34:53;8.15;;;7.45;;
20861;SDS011;10591;52.532;13.348;2023-06-26T13:37:26;7.70;;;7.10;;
20861;SDS011;10591;52.532;13.348;2023-06-26T13:39:59;7.95;;;7.25;;
20861;SDS011;10591;52.532;13.348;2023-06-26T13:42:33;8.13;;;6.97;;
20861;SDS011;10591;52.532;13.348;2023-06-26T13:45:06;8.33;;;7.47;;
20861;SDS011;10591;52.532;13.348;2023-06-26T13:47:40;7.97;;;7.28;;
20861;SDS011;10591;52.532;13.348;2023-06-26T13:50:12;7.78;;;7.00;;
20861;SDS011;10591;52.532;13.348;2023-06-26T13:52:46;7.72;;;7.03;;
20861;SDS011;10591;52.532;13.348;2023-06-26T13:55:17;8.15;;;7.35;;
20861;SDS011;10591;52.532;13.348;2023-06-26T13:57:49;8.18;;;7.17;;
20861;SDS011;10591;52.532;13.348;2023-06-26T14:00:21;7.83;;;7.20;;
20861;SDS011;10591;52.532;13.348;2023-06-26T14:02:53;7.75;;;7.08;;
20861;SDS011;10591;52.532;13.348;2023-06-26T14:05:27;8.60;;;7.70;;
20861;SDS011;10591;52.532;13.348;2023-06-26T14:08:04;7.83;;;7.10;;
20861;SDS011;10591;52.532;13.348;2023-06-26T14:10:38;8.28;;;7.58;;
20861;SDS011;10591;52.532;13.348;2023-06-26T14:13:11;8.40;;;7.60;;
20861;SDS011;10591;52.532;13.348;2023-06-26T14:15:44;8.23;;;7.03;;
20861;SDS011;10591;52.532;13.348;2023-06-26T14:18:18;10.88;;;6.85;;
20861;SDS011;10591;52.532;13.348;2023-06-26T14:20:51;11.38;;;7.35;;
20861;SDS011;10591;52.532;13.348;2023-06-26T14:23:27;10.93;;;7.60;;
20861;SDS011;10591;52.532;13.348;2023-06-26T14:26:00;11.85;;;8.68;;
20861;SDS011;10591;52.532;13.348;2023-06-26T14:28:31;11.65;;;8.80;;
20861;SDS011;10591;52.532;13.348;2023-06-26T14:31:05;10.68;;;7.22;;
20861;SDS011;10591;52.532;13.348;2023-06-26T14:33:39;10.72;;;6.62;;
20861;SDS011;10591;52.532;13.348;2023-06-26T14:36:10;8.08;;;6.22;;
20861;SDS011;10591;52.532;13.348;2023-06-26T14:38:43;8.13;;;5.85;;
20861;SDS011;10591;52.532;13.348;2023-06-26T14:41:16;7.28;;;5.40;;
20861;SDS011;10591;52.532;13.348;2023-06-26T14:43:50;6.42;;;5.40;;
20861;SDS011;10591;52.532;13.348;2023-06-26T14:46:24;7.45;;;6.65;;
20861;SDS011;10591;52.532;13.348;2023-06-26T14:48:57;7.78;;;6.00;;
20861;SDS011;10591;52.532;13.348;2023-06-26T14:51:30;8.38;;;7.58;;
20861;SDS011;10591;52.532;13.348;2023-06-26T14:54:03;11.60;;;8.73;;
20861;SDS011;10591;52.532;13.348;2023-06-26T14:56:35;15.55;;;11.43;;
20861;SDS011;10591;52.532;13.348;2023-06-26T14:59:07;15.05;;;11.38;;
20861;SDS011;10591;52.532;13.348;2023-06-26T15:01:41;19.90;;;15.10;;
20861;SDS011;10591;52.532;13.348;2023-06-26T15:04:14;25.52;;;12.37;;
20861;SDS011;10591;52.532;13.348;2023-06-26T15:06:48;17.55;;;12.15;;